LFSTEDMA

Guest
Details From LFST - Entzheim
To EDMA - Augsburg
Flight Number -
Tags generated
Created
Modified
Stats Distance 132 nm / 244 km
Max Altitude 13,800 ft / 4,206 m
Waypoints 3
Social Downloads 0
Likes 0
Share VATSIM

Download

Looking for another format? Having issues loading an existing format? Contact us
Advertisement - Login to hide

Notes

Basic altitude profile: - Ascent Rate: 2500ft/min - Ascent Speed: 250kts - Cruise Altitude: 35000ft - Cruise Speed: 420kts - Descent Rate: 1500ft/min - Descent Speed: 250kts

Route

LFST ROTWE EDMA

ID Type Via Altitude Latitude Longitude Leg Dist Tot Dist Heading (true) Name
O LFST APT - 0 ft / 0 m 48.53833˚ 7.62826˚ - 0 nm - Entzheim
ROTWE FIX - 13,800 ft / 4,206 m 48.51328˚ 8.67461˚ 41 nm 41 nm 92° / 92° -
O EDMA APT - 0 ft / 0 m 48.42424˚ 10.93428˚ 90 nm 131 nm 93° / 94° Augsburg

Altitude Profile

Advertisement - Login to hide

LFST

Details ICAO LFST (SXB)
Name Entzheim
Region France
Timezone Europe/Paris (UTC+2.0)
Stats Elevation 504 ft / 154 m (AMSL)
Location 48.538335° 7.628265°
Runways 1
Magnetic Variation 2.161° E

METAR

LFST 271430Z AUTO 34004KT CAVOK 26/16 Q1017 TEMPO 25015G30KT 3000 TSRA SCT060CB

Decode

TAF

TAF AMD LFST 271200Z 2712/2812 VRB03KT CAVOK TEMPO 2712/2720 FEW060CB PROB40 TEMPO 2713/2717 25015G30KT 3000 TSRA SCT060CB PROB30 TEMPO 2713/2716 1000 TSGRRA BKN060CB BECMG 2809/2812 FEW060CB

Decode

Departure Runways

ID Width Length Bearing (true) Bearing (mag) Surface Threshold Offset Overrun Length
05 148 ft / 45 m 7,899 ft / 2,408 m 48.60° 46.44° Asphalt 0 ft / 0 m 860 ft / 262 m
23 148 ft / 45 m 7,899 ft / 2,408 m 228.62° 226.46° Asphalt 0 ft / 0 m 902 ft / 275 m

EDMA

Details ICAO EDMA (AGB)
Name Augsburg
Region Germany - Civil
Timezone Europe/Berlin (UTC+2.0)
Stats Elevation 1,515 ft / 462 m (AMSL)
Location 48.424245° 10.934277°
Runways 2
Magnetic Variation 3.009° E

METAR

EDMA 271420Z 34004KT 280V040 CAVOK 25/14 Q1018

Decode

TAF

Not found

Destination Runways

ID Width Length Bearing (true) Bearing (mag) Surface Threshold Offset Overrun Length
07 98 ft / 30 m 4,186 ft / 1,276 m 71.38° 68.37° Asphalt 0 ft / 0 m 164 ft / 50 m
07L 100 ft / 30 m 3,320 ft / 1,012 m 71.47° 68.46° Grass 0 ft / 0 m 0 ft / 0 m
25 98 ft / 30 m 4,186 ft / 1,276 m 251.39° 248.38° Asphalt 0 ft / 0 m 164 ft / 50 m
25R 100 ft / 30 m 3,320 ft / 1,012 m 251.48° 248.47° Grass 0 ft / 0 m 0 ft / 0 m

Approach Navaids

Runway Type Ident Frequency Range Bearing (true) Bearing (mag) Slope Elevation
25 Localiser AUG 108.50 MHz 18 nm / 33 km 251.39° 248.38° - 1,510 ft / 460 m (AMSL)
25 Glidescope AUG 108.50 MHz 10 nm / 19 km 251.39° 248.38° 3.50° 1,515 ft / 462 m (AMSL)